createdAt,value
2022-10-30T00:01:23.068Z,27.73
2022-10-30T00:03:51.432Z,21.60
2022-10-30T00:06:19.568Z,22.60
2022-10-30T00:08:47.727Z,20.80
2022-10-30T00:11:15.808Z,24.10
2022-10-30T00:13:44.817Z,22.08
2022-10-30T00:16:13.169Z,22.33
2022-10-30T00:18:43.241Z,19.00
2022-10-30T00:21:13.873Z,20.23
2022-10-30T00:23:53.062Z,19.40
2022-10-30T00:26:22.665Z,17.75
2022-10-30T00:28:55.532Z,20.80
2022-10-30T00:31:23.960Z,24.42
2022-10-30T00:33:53.675Z,21.00
2022-10-30T00:36:23.227Z,20.95
2022-10-30T00:38:51.527Z,20.02
2022-10-30T00:41:23.794Z,26.35
2022-10-30T00:43:52.412Z,26.85
2022-10-30T00:46:40.634Z,22.85
2022-10-30T00:49:16.993Z,23.58
2022-10-30T00:51:53.846Z,24.30
2022-10-30T00:54:23.658Z,19.52
2022-10-30T00:56:54.083Z,27.10
2022-10-30T00:59:30.941Z,26.30
2022-10-30T01:02:01.075Z,29.55
2022-10-30T01:04:33.133Z,24.35
2022-10-30T01:07:09.551Z,20.90
2022-10-30T01:09:40.878Z,23.15
2022-10-30T01:12:09.122Z,27.23
2022-10-30T01:14:45.965Z,26.60
2022-10-30T01:17:25.880Z,28.10
2022-10-30T01:20:43.211Z,24.35
2022-10-30T01:23:46.916Z,28.98
2022-10-30T01:26:39.084Z,30.70
2022-10-30T01:29:33.380Z,35.20
2022-10-30T01:32:30.514Z,32.35
2022-10-30T01:35:10.694Z,30.90
2022-10-30T01:37:56.634Z,32.10
2022-10-30T01:40:25.460Z,31.63
2022-10-30T01:42:58.404Z,29.45
2022-10-30T01:45:44.762Z,33.25
2022-10-30T01:48:42.173Z,32.38
2022-10-30T01:51:37.451Z,34.75
2022-10-30T01:54:52.410Z,34.38
2022-10-30T01:57:44.000Z,33.03
2022-10-30T02:00:17.134Z,39.55
2022-10-30T02:02:51.363Z,38.58
2022-10-30T02:05:46.197Z,36.28
2022-10-30T02:08:14.531Z,37.25
2022-10-30T02:10:47.003Z,39.70
2022-10-30T02:13:15.646Z,38.30
2022-10-30T02:15:47.939Z,36.03
2022-10-30T02:18:16.290Z,30.10
2022-10-30T02:20:44.691Z,29.77
2022-10-30T02:23:18.930Z,32.85
2022-10-30T02:25:47.107Z,29.15
2022-10-30T02:28:15.316Z,31.13
2022-10-30T02:30:46.228Z,36.03
2022-10-30T02:33:14.489Z,29.38
2022-10-30T02:35:42.799Z,36.97
2022-10-30T02:38:10.931Z,28.50
2022-10-30T02:40:39.171Z,31.27
2022-10-30T02:43:09.052Z,36.03
2022-10-30T02:45:37.216Z,27.83
2022-10-30T02:48:05.646Z,28.67
2022-10-30T02:50:33.973Z,34.00
2022-10-30T02:53:02.374Z,30.20
2022-10-30T02:55:30.510Z,29.08
2022-10-30T02:57:59.461Z,31.70
2022-10-30T03:00:27.638Z,32.58
2022-10-30T03:02:58.940Z,38.83
2022-10-30T03:05:27.610Z,30.83
2022-10-30T03:07:56.275Z,33.50
2022-10-30T03:10:24.732Z,33.45
2022-10-30T03:12:53.693Z,27.58
2022-10-30T03:15:22.079Z,32.03
2022-10-30T03:17:52.477Z,29.05
2022-10-30T03:20:20.841Z,30.27
2022-10-30T03:22:48.990Z,44.13
2022-10-30T03:25:23.750Z,33.15
2022-10-30T03:27:56.134Z,27.30
2022-10-30T03:30:24.762Z,31.85
2022-10-30T03:32:52.896Z,33.40
2022-10-30T03:35:21.887Z,32.78
2022-10-30T03:37:50.079Z,29.92
2022-10-30T03:40:22.247Z,32.00
2022-10-30T03:42:51.297Z,32.50
2022-10-30T03:45:19.406Z,43.00
2022-10-30T03:47:47.669Z,32.42
2022-10-30T03:50:16.023Z,36.25
2022-10-30T03:52:44.191Z,33.65
2022-10-30T03:55:13.507Z,31.55
2022-10-30T03:57:43.266Z,31.88
2022-10-30T04:00:21.125Z,31.02
2022-10-30T04:02:58.665Z,32.13
2022-10-30T04:05:29.517Z,35.40
2022-10-30T04:08:03.421Z,32.40
2022-10-30T04:10:41.793Z,33.28
2022-10-30T04:13:13.827Z,39.67
2022-10-30T04:15:57.204Z,29.08
2022-10-30T04:18:26.785Z,30.27
2022-10-30T04:20:59.078Z,29.98
2022-10-30T04:23:27.400Z,32.63
2022-10-30T04:25:59.904Z,26.75
2022-10-30T04:28:28.543Z,29.58
2022-10-30T04:30:57.194Z,29.50
2022-10-30T04:33:27.224Z,28.85
2022-10-30T04:35:59.024Z,33.88
2022-10-30T04:38:27.168Z,33.95
2022-10-30T04:40:57.322Z,28.48
2022-10-30T04:43:57.574Z,35.00
2022-10-30T04:46:25.735Z,29.02
2022-10-30T04:48:57.393Z,30.70
2022-10-30T04:51:26.119Z,28.35
2022-10-30T04:53:55.154Z,32.92
2022-10-30T04:56:23.894Z,29.55
2022-10-30T04:58:53.436Z,31.10
2022-10-30T05:01:22.243Z,34.13
2022-10-30T05:03:53.756Z,34.33
2022-10-30T05:06:26.148Z,42.00
2022-10-30T05:08:57.101Z,32.22
2022-10-30T05:11:52.998Z,36.58
2022-10-30T05:14:23.182Z,39.00
2022-10-30T05:16:51.549Z,37.20
2022-10-30T05:19:19.683Z,40.83
2022-10-30T05:21:54.182Z,38.63
2022-10-30T05:24:22.375Z,40.08
2022-10-30T05:26:51.374Z,39.70
2022-10-30T05:29:19.536Z,39.78
2022-10-30T05:31:47.700Z,44.35
2022-10-30T05:34:18.704Z,39.55
2022-10-30T05:36:50.306Z,36.60
2022-10-30T05:39:19.570Z,34.42
2022-10-30T05:41:50.652Z,38.20
2022-10-30T05:44:29.187Z,35.58
2022-10-30T05:47:11.373Z,32.33
2022-10-30T05:49:41.638Z,34.95
2022-10-30T05:52:17.097Z,32.65
2022-10-30T05:54:45.361Z,32.95
2022-10-30T05:57:19.262Z,36.05
2022-10-30T05:59:48.240Z,31.95
2022-10-30T06:02:17.752Z,30.23
2022-10-30T06:04:46.063Z,31.42
2022-10-30T06:07:15.519Z,27.60
2022-10-30T06:09:44.064Z,31.48
2022-10-30T06:12:27.123Z,27.60
2022-10-30T06:15:24.848Z,32.67
2022-10-30T06:17:53.653Z,32.50
2022-10-30T06:20:31.286Z,25.73
2022-10-30T06:23:17.699Z,26.30
2022-10-30T06:25:52.811Z,24.35
2022-10-30T06:28:31.438Z,27.33
2022-10-30T06:30:59.782Z,32.55
2022-10-30T06:33:28.518Z,29.83
2022-10-30T06:35:56.988Z,31.40
2022-10-30T06:38:25.982Z,25.77
2022-10-30T06:40:55.563Z,30.15
2022-10-30T06:43:46.931Z,25.50
2022-10-30T06:46:23.289Z,24.98
2022-10-30T06:48:53.140Z,25.38
2022-10-30T06:51:22.166Z,26.33
2022-10-30T06:53:53.311Z,22.52
2022-10-30T06:56:44.568Z,26.75
2022-10-30T06:59:30.949Z,24.25
2022-10-30T07:02:34.283Z,29.58
2022-10-30T07:05:07.580Z,20.55
2022-10-30T07:07:35.764Z,21.98
2022-10-30T07:10:04.449Z,27.13
2022-10-30T07:12:59.991Z,30.92
2022-10-30T07:15:46.804Z,29.55
2022-10-30T07:18:26.201Z,32.90
2022-10-30T07:20:58.369Z,28.20
2022-10-30T07:23:30.291Z,31.48
2022-10-30T07:26:13.059Z,29.93
2022-10-30T07:28:47.099Z,26.88
2022-10-30T07:31:34.966Z,23.42
2022-10-30T07:34:31.282Z,30.58
2022-10-30T07:37:25.663Z,26.20
2022-10-30T07:40:12.501Z,34.75
2022-10-30T07:43:01.339Z,28.55
2022-10-30T07:45:46.015Z,21.58
2022-10-30T07:48:34.427Z,25.55
2022-10-30T07:51:22.864Z,31.67
2022-10-30T07:53:51.168Z,32.80
2022-10-30T07:56:20.783Z,29.67
2022-10-30T07:58:57.965Z,37.67
2022-10-30T08:01:44.939Z,33.47
2022-10-30T08:04:46.020Z,33.50
2022-10-30T08:07:45.838Z,35.40
2022-10-30T08:10:14.963Z,29.52
2022-10-30T08:12:44.562Z,32.83
2022-10-30T08:15:12.870Z,38.38
2022-10-30T08:17:45.957Z,34.60
2022-10-30T08:22:52.552Z,31.00
2022-10-30T08:25:27.289Z,33.35
2022-10-30T08:27:58.992Z,30.75
2022-10-30T08:30:34.325Z,38.40
2022-10-30T08:33:07.427Z,43.25
2022-10-30T08:35:57.367Z,39.75
2022-10-30T08:38:28.506Z,44.20
2022-10-30T08:41:10.382Z,39.20
2022-10-30T08:43:45.316Z,37.25
2022-10-30T08:46:13.561Z,36.72
2022-10-30T08:48:42.427Z,39.80
2022-10-30T08:51:11.196Z,35.33
2022-10-30T08:53:45.193Z,35.53
2022-10-30T08:56:17.423Z,31.30
2022-10-30T08:59:08.174Z,29.70
2022-10-30T09:01:37.575Z,32.50
2022-10-30T09:04:20.673Z,31.48
2022-10-30T09:07:10.257Z,32.63
2022-10-30T09:09:59.455Z,34.33
2022-10-30T09:12:30.832Z,33.63
2022-10-30T09:14:59.324Z,30.70
2022-10-30T09:17:28.100Z,37.10
2022-10-30T09:19:56.920Z,29.23
2022-10-30T09:22:35.051Z,41.40
2022-10-30T09:25:07.115Z,38.22
2022-10-30T09:28:07.299Z,39.95
2022-10-30T09:30:56.572Z,33.53
2022-10-30T09:33:27.969Z,28.83
2022-10-30T09:36:24.943Z,31.42
2022-10-30T09:38:55.446Z,35.58
2022-10-30T09:41:33.655Z,32.15
2022-10-30T09:44:20.325Z,27.33
2022-10-30T09:47:09.653Z,34.53
2022-10-30T09:50:04.863Z,34.03
2022-10-30T09:53:03.478Z,31.35
2022-10-30T09:55:54.286Z,33.15
2022-10-30T09:58:46.392Z,28.25
2022-10-30T10:01:24.096Z,38.20
2022-10-30T10:04:23.941Z,36.40
2022-10-30T10:07:27.928Z,40.15
2022-10-30T10:10:20.622Z,42.72
2022-10-30T10:13:01.052Z,34.78
2022-10-30T10:15:37.377Z,35.42
2022-10-30T10:18:15.328Z,36.42
2022-10-30T10:20:47.114Z,39.85
2022-10-30T10:23:28.264Z,42.78
2022-10-30T10:26:04.031Z,35.13
2022-10-30T10:28:53.550Z,36.58
2022-10-30T10:31:47.303Z,46.95
2022-10-30T10:34:42.834Z,38.28
2022-10-30T10:37:27.537Z,37.00
2022-10-30T10:40:14.234Z,43.85
2022-10-30T10:42:53.695Z,43.85
2022-10-30T10:45:30.916Z,46.65
2022-10-30T10:48:20.664Z,48.20
2022-10-30T10:51:13.113Z,47.22
2022-10-30T10:53:55.850Z,43.88
2022-10-30T10:56:29.687Z,47.63
2022-10-30T10:59:02.178Z,50.08
2022-10-30T11:01:40.384Z,41.33
2022-10-30T11:04:34.909Z,45.75
2022-10-30T11:07:17.379Z,49.55
2022-10-30T11:09:47.517Z,52.60
2022-10-30T11:12:15.725Z,41.55
2022-10-30T11:14:43.875Z,47.35
2022-10-30T11:17:33.946Z,50.65
2022-10-30T11:20:14.383Z,46.17
2022-10-30T11:22:49.377Z,44.58
2022-10-30T11:25:27.068Z,50.63
2022-10-30T11:28:05.354Z,45.78
2022-10-30T11:30:33.598Z,41.70
2022-10-30T11:33:22.319Z,44.20
2022-10-30T11:35:50.415Z,42.20
2022-10-30T11:38:24.073Z,42.15
2022-10-30T11:40:54.407Z,36.53
2022-10-30T11:43:25.564Z,39.08
2022-10-30T11:45:54.674Z,38.22
2022-10-30T11:48:32.645Z,44.42
2022-10-30T11:51:04.532Z,45.90
2022-10-30T11:53:39.352Z,36.08
2022-10-30T11:56:22.260Z,32.38
2022-10-30T11:58:56.906Z,40.95
2022-10-30T12:01:31.413Z,31.73
2022-10-30T12:04:25.980Z,34.67
2022-10-30T12:07:20.669Z,42.13
2022-10-30T12:09:49.100Z,42.83
2022-10-30T12:12:25.664Z,32.70
2022-10-30T12:14:55.690Z,34.45
2022-10-30T12:17:23.905Z,28.45
2022-10-30T12:19:55.144Z,33.75
2022-10-30T12:22:31.200Z,27.65
2022-10-30T12:25:02.995Z,32.15
2022-10-30T12:27:36.247Z,33.67
2022-10-30T12:30:20.370Z,33.33
2022-10-30T12:33:08.156Z,32.80
2022-10-30T12:35:50.420Z,36.28
2022-10-30T12:38:48.362Z,34.50
2022-10-30T12:41:40.461Z,39.35
2022-10-30T12:44:15.342Z,33.40
2022-10-30T12:47:05.244Z,28.42
2022-10-30T12:49:36.211Z,33.78
2022-10-30T12:52:10.132Z,32.40
2022-10-30T12:55:15.830Z,29.13
2022-10-30T12:57:54.847Z,38.95
2022-10-30T13:00:22.972Z,30.35
2022-10-30T13:03:15.390Z,30.08
2022-10-30T13:05:57.076Z,37.03
2022-10-30T13:08:54.649Z,28.80
2022-10-30T13:11:33.833Z,28.77
2022-10-30T13:14:05.320Z,29.70
2022-10-30T13:16:33.719Z,32.17
2022-10-30T13:19:03.101Z,32.83
2022-10-30T13:21:40.129Z,31.80
2022-10-30T13:24:32.702Z,29.63
2022-10-30T13:27:17.519Z,25.35
2022-10-30T13:30:04.197Z,28.40
2022-10-30T13:32:57.614Z,23.38
2022-10-30T13:35:47.481Z,24.52
2022-10-30T13:38:31.877Z,27.20
2022-10-30T13:41:23.608Z,22.88
2022-10-30T13:43:54.946Z,24.60
2022-10-30T13:46:41.288Z,21.40
2022-10-30T13:49:49.961Z,21.10
2022-10-30T13:52:22.705Z,18.70
2022-10-30T13:55:02.977Z,22.25
2022-10-30T13:57:44.662Z,22.77
2022-10-30T14:00:50.359Z,25.50
2022-10-30T14:03:42.099Z,23.08
2022-10-30T14:06:29.433Z,19.98
2022-10-30T14:08:57.556Z,21.33
2022-10-30T14:11:25.750Z,21.83
2022-10-30T14:14:03.447Z,19.15
2022-10-30T14:16:33.655Z,24.85
2022-10-30T14:19:07.891Z,25.55
2022-10-30T14:21:48.077Z,21.80
2022-10-30T14:24:28.704Z,19.65
2022-10-30T14:27:05.776Z,22.08
2022-10-30T14:29:36.550Z,20.83
2022-10-30T14:32:24.562Z,22.73
2022-10-30T14:34:53.168Z,19.48
2022-10-30T14:37:24.344Z,20.70
2022-10-30T14:39:53.810Z,21.02
2022-10-30T14:42:51.404Z,17.58
2022-10-30T14:46:10.774Z,22.30
2022-10-30T14:49:10.316Z,21.30
2022-10-30T14:51:46.367Z,24.05
2022-10-30T14:54:28.924Z,21.60
2022-10-30T14:56:57.462Z,24.27
2022-10-30T14:59:34.108Z,31.17
2022-10-30T15:02:14.771Z,21.55
2022-10-30T15:04:55.395Z,24.52
2022-10-30T15:07:35.533Z,22.48
2022-10-30T15:10:10.902Z,20.55
2022-10-30T15:13:18.217Z,24.77
2022-10-30T15:15:56.963Z,28.42
2022-10-30T15:18:30.342Z,22.23
2022-10-30T15:21:06.583Z,30.05
2022-10-30T15:23:37.266Z,42.47
2022-10-30T15:26:10.115Z,33.08
2022-10-30T15:28:40.161Z,16.90
2022-10-30T15:31:23.500Z,19.33
2022-10-30T15:33:54.266Z,17.63
2022-10-30T15:36:29.170Z,22.88
2022-10-30T15:39:15.568Z,15.65
2022-10-30T15:41:54.570Z,21.95
2022-10-30T15:44:27.407Z,17.60
2022-10-30T15:47:00.503Z,21.02
2022-10-30T15:49:38.755Z,16.95
2022-10-30T15:52:24.568Z,22.85
2022-10-30T15:54:59.623Z,20.50
2022-10-30T15:58:01.180Z,21.92
2022-10-30T16:00:25.956Z,20.98
2022-10-30T16:03:22.419Z,17.17
2022-10-30T16:05:50.639Z,17.10
2022-10-30T16:08:25.464Z,17.55
2022-10-30T16:10:55.189Z,23.80
2022-10-30T16:13:28.884Z,20.58
2022-10-30T16:15:57.414Z,19.02
2022-10-30T16:18:32.610Z,15.27
2022-10-30T16:21:07.633Z,14.55
2022-10-30T16:23:41.385Z,19.80
2022-10-30T16:26:23.341Z,16.13
2022-10-30T16:28:51.550Z,19.45
2022-10-30T16:31:20.631Z,15.40
2022-10-30T16:33:50.350Z,21.05
2022-10-30T16:36:19.681Z,22.42
2022-10-30T16:38:49.268Z,17.70
2022-10-30T16:41:22.721Z,16.88
2022-10-30T16:44:26.605Z,19.13
2022-10-30T16:47:25.956Z,22.45
2022-10-30T16:49:57.507Z,22.15
2022-10-30T16:52:35.557Z,21.73
2022-10-30T16:55:13.060Z,18.30
2022-10-30T16:57:47.177Z,20.65
2022-10-30T17:00:25.827Z,22.90
2022-10-30T17:02:57.720Z,20.60
2022-10-30T17:05:28.896Z,24.10
2022-10-30T17:07:58.774Z,17.73
2022-10-30T17:10:44.765Z,26.95
2022-10-30T17:13:37.987Z,20.40
2022-10-30T17:16:26.478Z,30.98
2022-10-30T17:18:57.374Z,18.98
2022-10-30T17:21:41.161Z,21.58
2022-10-30T17:24:30.789Z,26.90
2022-10-30T17:27:04.020Z,26.13
2022-10-30T17:29:38.213Z,28.83
2022-10-30T17:32:23.430Z,24.55
2022-10-30T17:35:15.637Z,31.05
2022-10-30T17:37:44.312Z,24.27
2022-10-30T17:40:13.320Z,26.08
2022-10-30T17:42:41.979Z,22.90
2022-10-30T17:45:15.304Z,29.98
2022-10-30T17:50:11.786Z,24.00
2022-10-30T17:52:40.098Z,19.75
2022-10-30T17:55:22.515Z,21.95
2022-10-30T17:57:50.812Z,19.73
2022-10-30T18:00:20.692Z,23.95
2022-10-30T18:02:49.176Z,30.85
2022-10-30T18:05:20.933Z,21.15
2022-10-30T18:10:18.326Z,25.20
2022-10-30T18:12:49.044Z,22.92
2022-10-30T18:15:26.050Z,25.42
2022-10-30T18:17:55.121Z,23.05
2022-10-30T18:20:23.860Z,21.10
2022-10-30T18:22:55.640Z,25.48
2022-10-30T18:25:30.579Z,24.80
2022-10-30T18:27:58.980Z,24.42
2022-10-30T18:30:29.138Z,26.98
2022-10-30T18:32:59.956Z,28.15
2022-10-30T18:35:33.675Z,36.67
2022-10-30T18:38:02.265Z,25.23
2022-10-30T18:40:33.427Z,31.42
2022-10-30T18:43:02.650Z,29.80
2022-10-30T18:45:35.810Z,28.10
2022-10-30T18:48:04.396Z,32.90
2022-10-30T18:50:32.974Z,29.58
2022-10-30T18:53:02.069Z,25.38
2022-10-30T18:55:36.502Z,28.60
2022-10-30T18:58:06.371Z,25.90
2022-10-30T19:00:58.207Z,26.70
2022-10-30T19:03:24.244Z,34.40
2022-10-30T19:05:52.626Z,27.58
2022-10-30T19:08:20.763Z,24.85
2022-10-30T19:10:49.055Z,28.45
2022-10-30T19:13:22.355Z,23.98
2022-10-30T19:16:01.021Z,22.52
2022-10-30T19:18:31.475Z,29.00
2022-10-30T19:21:10.319Z,23.65
2022-10-30T19:23:43.004Z,31.35
2022-10-30T19:26:13.419Z,28.80
2022-10-30T19:28:41.949Z,27.50
2022-10-30T19:31:17.734Z,29.95
2022-10-30T19:33:49.990Z,31.70
2022-10-30T19:36:26.460Z,24.17
2022-10-30T19:38:55.098Z,25.05
2022-10-30T19:41:24.784Z,31.25
2022-10-30T19:43:54.041Z,31.33
2022-10-30T19:46:22.620Z,29.35
2022-10-30T19:48:59.208Z,22.73
2022-10-30T19:51:28.982Z,24.45
2022-10-30T19:53:57.243Z,27.98
2022-10-30T19:56:25.382Z,33.60
2022-10-30T19:58:53.492Z,31.15
2022-10-30T20:01:21.843Z,29.98
2022-10-30T20:03:50.207Z,28.92
2022-10-30T20:06:19.350Z,26.73
2022-10-30T20:08:47.619Z,24.95
2022-10-30T20:11:15.742Z,31.48
2022-10-30T20:13:43.816Z,31.80
2022-10-30T20:16:12.042Z,31.38
2022-10-30T20:18:40.215Z,30.35
2022-10-30T20:21:11.330Z,23.27
2022-10-30T20:23:39.423Z,30.55
2022-10-30T20:26:19.180Z,26.98
2022-10-30T20:28:47.388Z,28.40
2022-10-30T20:31:15.546Z,28.13
2022-10-30T20:33:43.639Z,30.85
2022-10-30T20:36:13.858Z,35.28
2022-10-30T20:38:42.278Z,31.95
2022-10-30T20:41:24.604Z,34.58
2022-10-30T20:43:52.895Z,34.45
2022-10-30T20:46:21.539Z,26.90
2022-10-30T20:48:50.778Z,28.25
2022-10-30T20:51:18.942Z,34.25
2022-10-30T20:53:47.064Z,29.23
2022-10-30T20:56:15.289Z,29.33
2022-10-30T20:58:43.529Z,33.55
2022-10-30T21:01:14.868Z,39.25
2022-10-30T21:03:43.073Z,36.60
2022-10-30T21:06:11.205Z,28.35
2022-10-30T21:08:39.331Z,25.77
2022-10-30T21:11:08.388Z,28.20
2022-10-30T21:13:37.531Z,27.20
2022-10-30T21:16:08.666Z,23.98
2022-10-30T21:18:36.825Z,26.23
2022-10-30T21:21:08.003Z,38.42
2022-10-30T21:23:36.147Z,26.98
2022-10-30T21:26:09.814Z,31.73
2022-10-30T21:28:38.709Z,34.88
2022-10-30T21:31:10.615Z,41.03
2022-10-30T21:33:39.466Z,41.60
2022-10-30T21:36:13.643Z,44.70
2022-10-30T21:38:44.324Z,38.95
2022-10-30T21:41:15.496Z,32.47
2022-10-30T21:43:48.754Z,33.63
2022-10-30T21:46:16.926Z,38.33
2022-10-30T21:48:45.123Z,33.75
2022-10-30T21:51:19.039Z,33.90
2022-10-30T21:53:48.030Z,31.92
2022-10-30T21:56:28.684Z,30.10
2022-10-30T21:59:04.669Z,31.23
2022-10-30T22:01:35.436Z,36.95
2022-10-30T22:04:05.972Z,30.85
2022-10-30T22:06:34.366Z,38.78
2022-10-30T22:09:02.580Z,32.70
2022-10-30T22:11:30.681Z,35.70
2022-10-30T22:14:03.522Z,27.02
2022-10-30T22:16:34.412Z,32.15
2022-10-30T22:19:03.212Z,27.63
2022-10-30T22:21:31.488Z,29.27
2022-10-30T22:24:03.855Z,33.85
2022-10-30T22:26:32.242Z,32.50
2022-10-30T22:29:01.116Z,30.67
2022-10-30T22:31:30.532Z,30.38
2022-10-30T22:34:00.969Z,29.25
2022-10-30T22:36:33.344Z,29.75
2022-10-30T22:39:07.858Z,33.80
2022-10-30T22:41:37.519Z,33.83
2022-10-30T22:44:13.136Z,26.48
2022-10-30T22:46:41.846Z,31.42
2022-10-30T22:49:10.046Z,33.13
2022-10-30T22:51:39.599Z,30.65
2022-10-30T22:54:14.859Z,29.35
2022-10-30T22:56:43.081Z,30.58
2022-10-30T22:59:13.469Z,34.88
2022-10-30T23:01:42.898Z,30.30
2022-10-30T23:04:15.071Z,27.98
2022-10-30T23:06:43.730Z,31.30
2022-10-30T23:09:18.477Z,32.55
2022-10-30T23:11:46.614Z,32.15
2022-10-30T23:14:19.001Z,27.08
2022-10-30T23:16:47.142Z,34.50
2022-10-30T23:19:15.321Z,34.88
2022-10-30T23:21:43.451Z,35.00
2022-10-30T23:24:14.617Z,32.45
2022-10-30T23:26:42.956Z,29.17
2022-10-30T23:29:11.181Z,36.08
2022-10-30T23:31:41.752Z,32.35
2022-10-30T23:34:14.185Z,31.67
2022-10-30T23:36:43.416Z,34.38
2022-10-30T23:39:17.249Z,35.45
2022-10-30T23:41:45.791Z,33.72
2022-10-30T23:44:15.445Z,37.95
2022-10-30T23:46:43.967Z,33.13
2022-10-30T23:49:12.152Z,35.83
2022-10-30T23:51:40.498Z,34.15
2022-10-30T23:54:08.817Z,34.63
2022-10-30T23:56:36.934Z,34.92
2022-10-30T23:59:05.453Z,38.53
